Time;durP1;ratioP1;P1;durP2;ratioP2;P2;SDS_P1;SDS_P2;PMS_P1;PMS_P2;Temp;Humidity;BMP_temperature;BMP_pressure;BME280_temperature;BME280_humidity;BME280_pressure;Samples;Min_cycle;Max_cycle;Signal;HPM_P1;HPM_P2
2022/11/27 00:00:56;;;;;;;18.63;11.87;;;;;;;2.94;100.00;96651.66;4920039;29;20200;-80
2022/11/27 00:03:21;;;;;;;21.30;11.53;;;;;;;2.93;100.00;96651.72;4935860;29;20210;-81
2022/11/27 00:05:55;;;;;;;19.47;12.13;;;;;;;2.90;100.00;96651.84;4935290;29;20579;-80
2022/11/27 00:08:20;;;;;;;19.17;12.17;;;;;;;2.79;100.00;96648.06;4921767;29;20252;-80
2022/11/27 00:10:45;;;;;;;24.07;12.77;;;;;;;2.66;100.00;96646.19;4936049;29;20273;-80
2022/11/27 00:13:11;;;;;;;18.90;11.70;;;;;;;2.86;100.00;96646.06;4920040;29;20225;-80
2022/11/27 00:15:36;;;;;;;15.80;10.87;;;;;;;2.80;100.00;96638.63;4916766;29;20187;-81
2022/11/27 00:18:01;;;;;;;21.33;11.13;;;;;;;2.79;100.00;96636.97;4936066;29;20190;-80
2022/11/27 00:20:27;;;;;;;18.50;10.63;;;;;;;2.89;100.00;96637.38;4935224;29;20198;-81
2022/11/27 00:22:52;;;;;;;23.47;9.80;;;;;;;2.88;100.00;96628.84;4936924;29;20722;-80
2022/11/27 00:25:17;;;;;;;18.37;9.80;;;;;;;2.83;100.00;96628.25;4915812;29;20198;-79
2022/11/27 00:27:42;;;;;;;21.53;9.93;;;;;;;2.81;100.00;96614.66;4919646;29;20214;-81
2022/11/27 00:30:08;;;;;;;17.60;9.07;;;;;;;2.82;100.00;96614.56;4935304;29;20564;-80
2022/11/27 00:32:33;;;;;;;17.13;9.37;;;;;;;2.77;100.00;96608.00;4935224;29;20332;-79
2022/11/27 00:34:59;;;;;;;15.90;8.70;;;;;;;2.82;100.00;96606.88;4918941;29;20201;-80
2022/11/27 00:37:24;;;;;;;13.73;8.50;;;;;;;2.91;100.00;96602.19;4918734;29;20201;-80
2022/11/27 00:39:49;;;;;;;16.37;8.73;;;;;;;2.80;100.00;96597.59;4919476;29;20190;-80
2022/11/27 00:42:14;;;;;;;16.33;7.93;;;;;;;2.81;100.00;96596.69;4936501;29;20248;-80
2022/11/27 00:44:40;;;;;;;13.90;7.80;;;;;;;2.87;100.00;96593.84;4919003;29;20709;-80
2022/11/27 00:47:05;;;;;;;11.70;7.40;;;;;;;2.81;100.00;96589.00;4917879;29;20607;-80
2022/11/27 00:49:31;;;;;;;15.83;8.87;;;;;;;2.82;100.00;96585.50;4919921;29;20205;-80
2022/11/27 00:51:56;;;;;;;15.37;7.87;;;;;;;2.81;100.00;96582.13;4919371;29;20208;-80
2022/11/27 00:54:21;;;;;;;14.27;7.60;;;;;;;2.94;100.00;96576.41;4919338;29;20239;-80
2022/11/27 00:56:47;;;;;;;14.30;8.67;;;;;;;2.88;100.00;96572.41;4934594;29;20200;-80
2022/11/27 00:59:12;;;;;;;12.83;8.70;;;;;;;2.82;100.00;96572.69;4918857;29;20654;-80
2022/11/27 01:01:39;;;;;;;19.10;8.13;;;;;;;2.68;100.00;96564.84;4919398;29;20190;-80
2022/11/27 01:04:07;;;;;;;11.10;8.17;;;;;;;2.72;100.00;96569.75;4934908;29;20554;-80
2022/11/27 01:06:32;;;;;;;15.43;8.43;;;;;;;2.82;100.00;96565.00;4924890;29;20195;-79
2022/11/27 01:08:58;;;;;;;14.63;8.50;;;;;;;2.75;100.00;96558.53;4935091;29;20271;-80
2022/11/27 01:11:26;;;;;;;11.87;7.97;;;;;;;2.63;100.00;96559.09;4934803;29;20278;-80
2022/11/27 01:13:54;;;;;;;13.77;8.50;;;;;;;2.74;100.00;96556.84;4919083;29;20215;-80
2022/11/27 01:16:21;;;;;;;12.67;8.23;;;;;;;2.63;100.00;96559.09;4934107;29;20200;-80
2022/11/27 01:18:48;;;;;;;12.13;7.43;;;;;;;2.67;100.00;96553.78;4935325;29;20177;-80
2022/11/27 01:21:16;;;;;;;12.83;8.43;;;;;;;2.67;100.00;96558.06;4919597;29;20190;-80
2022/11/27 01:23:41;;;;;;;12.17;8.23;;;;;;;2.67;100.00;96552.94;4935346;29;20276;-80
2022/11/27 01:26:07;;;;;;;13.17;7.97;;;;;;;2.63;100.00;96553.97;4934535;29;20190;-80
2022/11/27 01:28:33;;;;;;;12.73;8.10;;;;;;;2.63;100.00;96543.72;4935044;29;20788;-80
2022/11/27 01:31:06;;;;;;;12.73;7.50;;;;;;;2.74;100.00;96544.00;4918831;29;20186;-80
2022/11/27 01:33:32;;;;;;;12.67;7.30;;;;;;;2.70;100.00;96538.22;4917129;29;20229;-80
2022/11/27 01:35:59;;;;;;;10.87;6.70;;;;;;;2.78;100.00;96527.59;4918230;29;20205;-80
2022/11/27 01:38:25;;;;;;;13.77;8.60;;;;;;;2.72;100.00;96533.00;4933676;29;20190;-80
2022/11/27 01:41:26;;;;;;;9.80;6.77;;;;;;;2.69;100.00;96525.47;4934848;29;20190;-80
2022/11/27 01:43:59;;;;;;;15.00;7.10;;;;;;;2.69;100.00;96525.47;4917361;29;20263;-79
2022/11/27 01:46:41;;;;;;;9.60;6.20;;;;;;;2.63;100.00;96520.63;4937489;29;20186;-80
2022/11/27 01:49:09;;;;;;;10.73;7.03;;;;;;;2.74;100.00;96532.06;4922692;29;20220;-80
2022/11/27 01:51:46;;;;;;;11.87;7.03;;;;;;;2.75;100.00;96531.16;4940880;29;20745;-80
2022/11/27 01:54:11;;;;;;;13.47;8.07;;;;;;;2.71;100.00;96531.34;4922752;29;20736;-80
2022/11/27 01:56:39;;;;;;;11.50;6.93;;;;;;;2.67;100.00;96522.16;4938235;29;20186;-80
2022/11/27 01:59:04;;;;;;;11.57;6.07;;;;;;;2.71;100.00;96521.09;4938835;29;20178;-81
2022/11/27 02:01:30;;;;;;;14.17;6.93;;;;;;;2.72;99.55;96528.72;4922383;29;20198;-80
2022/11/27 02:03:58;;;;;;;9.60;6.67;;;;;;;2.64;99.54;96524.88;4938467;29;20282;-80
2022/11/27 02:06:24;;;;;;;8.67;6.77;;;;;;;2.60;99.58;96526.75;4932278;29;20248;-80
2022/11/27 02:08:50;;;;;;;9.40;6.47;;;;;;;2.55;99.77;96529.53;4938575;29;20206;-80
2022/11/27 02:11:37;;;;;;;9.17;6.57;;;;;;;2.61;99.09;96519.91;4938635;29;20194;-80
2022/11/27 02:14:10;;;;;;;12.17;6.73;;;;;;;2.53;99.64;96523.66;4939834;29;20214;-81
2022/11/27 02:17:22;;;;;;;11.87;6.37;;;;;;;2.58;99.87;96520.88;4920436;29;20198;-80
2022/11/27 02:20:12;;;;;;;9.73;6.07;;;;;;;2.54;99.16;96522.75;4902236;29;20217;-80
2022/11/27 02:22:52;;;;;;;13.73;6.70;;;;;;;2.53;99.28;96517.69;4918125;29;20226;-80
2022/11/27 02:25:45;;;;;;;11.00;6.17;;;;;;;2.48;99.70;96517.94;4914976;29;20293;-80
2022/11/27 02:28:28;;;;;;;11.43;7.03;;;;;;;2.51;99.58;96520.34;4901996;29;20602;-80
2022/11/27 02:31:05;;;;;;;12.83;6.33;;;;;;;2.53;99.55;96518.53;4917867;29;20383;-80
2022/11/27 02:33:32;;;;;;;10.77;6.30;;;;;;;2.45;99.84;96512.13;4897638;29;20230;-80
2022/11/27 02:36:06;;;;;;;13.20;6.60;;;;;;;2.43;99.95;96508.81;4917039;29;20301;-81
2022/11/27 02:38:39;;;;;;;10.70;6.27;;;;;;;2.49;99.57;96505.94;4911425;29;20194;-80
2022/11/27 02:41:28;;;;;;;10.10;6.83;;;;;;;2.51;98.73;96499.84;4917131;29;20659;-81
2022/11/27 02:43:54;;;;;;;12.13;6.50;;;;;;;2.43;98.95;96495.97;4917113;29;20652;-81
2022/11/27 02:46:20;;;;;;;10.70;6.43;;;;;;;2.46;98.81;96500.94;4916736;29;20302;-80
2022/11/27 02:48:50;;;;;;;11.73;6.10;;;;;;;2.44;99.01;96503.59;4908350;29;20293;-80
2022/11/27 02:51:19;;;;;;;9.57;6.23;;;;;;;2.38;99.18;96503.06;4885595;29;20195;-80
2022/11/27 02:53:52;;;;;;;10.07;6.10;;;;;;;2.37;98.96;96503.97;4886348;29;20370;-79
2022/11/27 02:56:21;;;;;;;10.90;5.30;;;;;;;2.40;99.54;96508.97;4949531;28;20285;-80
2022/11/27 02:58:48;;;;;;;7.83;4.90;;;;;;;2.42;99.25;96507.16;4933248;29;20659;-81
2022/11/27 03:01:14;;;;;;;10.57;5.60;;;;;;;2.38;98.85;96501.31;4921193;29;20189;-81
2022/11/27 03:03:45;;;;;;;10.87;5.47;;;;;;;2.44;99.05;96506.16;4937083;29;20627;-81
2022/11/27 03:06:12;;;;;;;7.87;5.00;;;;;;;2.43;98.43;96491.69;4936380;29;20186;-79
2022/11/27 03:08:42;;;;;;;8.73;4.77;;;;;;;2.43;97.95;96488.28;4921408;29;20218;-81
2022/11/27 03:11:10;;;;;;;7.77;5.10;;;;;;;2.39;98.44;96479.94;4936805;29;20202;-79
2022/11/27 03:13:37;;;;;;;8.17;4.37;;;;;;;2.50;98.22;96482.78;4928465;29;20248;-81
2022/11/27 03:16:19;;;;;;;8.47;4.87;;;;;;;2.43;98.85;96468.63;4936850;29;20717;-80
2022/11/27 03:19:01;;;;;;;11.17;4.30;;;;;;;2.52;98.34;96475.03;4921471;29;20213;-80
2022/11/27 03:21:31;;;;;;;5.20;3.70;;;;;;;2.47;98.75;96471.84;4934009;29;20232;-80
2022/11/27 03:23:56;;;;;;;6.20;4.30;;;;;;;2.56;97.79;96471.38;4930441;29;20269;-81
2022/11/27 03:26:22;;;;;;;5.90;3.80;;;;;;;2.54;97.99;96463.78;4935972;29;20186;-80
2022/11/27 03:28:48;;;;;;;8.33;3.57;;;;;;;2.56;97.99;96466.25;4936491;29;20265;-80
2022/11/27 03:31:13;;;;;;;6.70;3.83;;;;;;;2.53;97.67;96466.41;4921188;29;20240;-80
2022/11/27 03:33:39;;;;;;;8.47;4.00;;;;;;;2.70;97.47;96463.00;4920652;29;20635;-80
2022/11/27 03:36:16;;;;;;;8.93;3.73;;;;;;;2.75;97.09;96472.16;4936042;29;20194;-80
2022/11/27 03:38:42;;;;;;;7.73;3.40;;;;;;;2.68;96.73;96464.84;4933942;29;20182;-80
2022/11/27 03:41:13;;;;;;;7.23;3.27;;;;;;;2.76;96.32;96472.97;4936511;29;20212;-80
2022/11/27 03:44:08;;;;;;;10.33;3.60;;;;;;;2.75;96.27;96477.28;4920251;29;20226;-80
2022/11/27 03:47:15;;;;;;;7.80;3.17;;;;;;;2.77;95.90;96475.47;4934930;29;20573;-80
2022/11/27 03:50:13;;;;;;;6.47;3.63;;;;;;;2.72;95.99;96476.59;4935641;29;20226;-80
2022/11/27 03:52:50;;;;;;;7.97;3.50;;;;;;;2.66;95.99;96469.22;4919956;29;20229;-80
2022/11/27 03:55:22;;;;;;;4.80;3.40;;;;;;;2.67;96.06;96470.88;4933384;29;20202;-81
2022/11/27 03:57:56;;;;;;;8.37;3.47;;;;;;;2.72;95.97;96461.19;4936190;29;20204;-80
2022/11/27 04:00:22;;;;;;;7.60;3.33;;;;;;;2.53;96.23;96458.72;4936161;29;20194;-80
2022/11/27 04:02:50;;;;;;;7.17;3.40;;;;;;;2.68;95.65;96460.53;4935573;29;20214;-80
2022/11/27 04:05:16;;;;;;;6.47;3.47;;;;;;;2.62;95.75;96458.25;4935684;29;20193;-79
2022/11/27 04:07:42;;;;;;;6.63;3.33;;;;;;;2.70;95.43;96447.63;4918712;29;20186;-80
2022/11/27 04:10:08;;;;;;;5.30;3.10;;;;;;;2.69;96.00;96445.97;4920082;29;20245;-80
2022/11/27 04:12:34;;;;;;;6.97;3.33;;;;;;;2.67;95.54;96438.38;4935851;29;20217;-81
2022/11/27 04:14:59;;;;;;;6.87;3.43;;;;;;;2.67;95.60;96437.53;4928108;29;20688;-79
2022/11/27 04:17:25;;;;;;;4.03;3.00;;;;;;;2.65;94.63;96440.19;4935493;29;20182;-80
2022/11/27 04:19:50;;;;;;;8.30;3.30;;;;;;;2.63;94.96;96447.09;4937442;29;20571;-80
2022/11/27 04:22:15;;;;;;;5.23;2.90;;;;;;;2.65;95.18;96452.16;4935871;29;20189;-80
2022/11/27 04:24:41;;;;;;;9.23;3.47;;;;;;;2.66;94.91;96452.09;4935120;29;20195;-79
2022/11/27 04:27:06;;;;;;;5.00;2.83;;;;;;;2.67;94.75;96435.78;4919859;29;20198;-80
2022/11/27 04:29:32;;;;;;;6.73;2.93;;;;;;;2.71;94.80;96428.75;4935959;29;20217;-80
2022/11/27 04:31:58;;;;;;;5.37;2.67;;;;;;;2.63;94.51;96421.47;4935536;29;20313;-80
2022/11/27 04:34:23;;;;;;;8.20;3.53;;;;;;;2.55;94.24;96419.28;4936857;29;20659;-80
2022/11/27 04:36:48;;;;;;;6.10;3.20;;;;;;;2.59;94.25;96421.69;4919470;29;20198;-80
2022/11/27 04:39:13;;;;;;;7.77;3.00;;;;;;;2.50;94.73;96423.81;4920065;29;20237;-80
2022/11/27 04:41:39;;;;;;;5.30;2.83;;;;;;;2.66;93.60;96420.50;4951875;29;20635;-80
2022/11/27 04:44:04;;;;;;;5.83;2.80;;;;;;;2.57;94.44;96426.91;4936300;29;20698;-80
2022/11/27 04:46:30;;;;;;;6.83;3.23;;;;;;;2.46;94.43;96424.03;4926059;29;20189;-81
2022/11/27 04:48:56;;;;;;;4.80;2.63;;;;;;;2.50;94.57;96425.56;4920165;29;20229;-80
2022/11/27 04:51:21;;;;;;;4.60;2.63;;;;;;;2.51;94.18;96432.34;4936986;29;20195;-80
2022/11/27 04:53:46;;;;;;;4.23;2.77;;;;;;;2.59;93.21;96429.41;4935536;29;20673;-81
2022/11/27 04:56:12;;;;;;;6.57;3.10;;;;;;;2.60;93.32;96425.94;4935438;29;20181;-81
2022/11/27 04:58:37;;;;;;;4.57;3.10;;;;;;;2.58;93.25;96422.63;4935899;29;20322;-81
2022/11/27 05:01:02;;;;;;;7.80;2.40;;;;;;;2.46;93.14;96422.31;4935752;29;20186;-80
2022/11/27 05:03:28;;;;;;;4.83;2.50;;;;;;;2.54;93.36;96417.63;4929960;29;20253;-80
2022/11/27 05:05:56;;;;;;;4.50;2.73;;;;;;;2.57;92.74;96418.41;4918582;29;20198;-81
2022/11/27 05:08:23;;;;;;;4.03;2.83;;;;;;;2.54;92.75;96412.50;4919720;29;20849;-80
2022/11/27 05:11:18;;;;;;;8.47;4.93;;;;;;;2.51;92.04;96410.09;4937290;29;20626;-79
2022/11/27 05:13:43;;;;;;;5.17;2.87;;;;;;;2.51;92.25;96409.28;4914903;29;20222;-79
2022/11/27 05:16:09;;;;;;;6.13;2.83;;;;;;;2.50;92.38;96413.56;4885508;29;20289;-79
2022/11/27 05:18:34;;;;;;;3.33;2.40;;;;;;;2.53;91.53;96410.84;4914119;29;20214;-79
2022/11/27 05:21:03;;;;;;;7.57;3.40;;;;;;;2.61;90.93;96407.88;4918916;29;20961;-79
2022/11/27 05:23:29;;;;;;;5.57;3.53;;;;;;;2.57;91.42;96408.97;4905646;29;20230;-79
2022/11/27 05:25:54;;;;;;;6.93;3.23;;;;;;;2.55;91.82;96401.31;4889266;29;20195;-80
2022/11/27 05:28:21;;;;;;;4.03;2.27;;;;;;;2.54;90.90;96394.53;4892444;29;20293;-79
2022/11/27 05:30:46;;;;;;;7.67;2.60;;;;;;;2.65;90.18;96394.03;4903318;29;20202;-79
2022/11/27 05:33:12;;;;;;;3.27;2.27;;;;;;;2.61;90.03;96395.06;4905287;29;20237;-80
2022/11/27 05:35:38;;;;;;;5.93;1.90;;;;;;;2.64;90.01;96392.34;4916148;29;20194;-80
2022/11/27 05:38:03;;;;;;;7.70;2.57;;;;;;;2.60;89.50;96390.84;4902179;29;20202;-80
2022/11/27 05:40:28;;;;;;;3.10;2.10;;;;;;;2.64;89.72;96389.78;4903072;29;20762;-79
2022/11/27 05:42:54;;;;;;;7.40;2.30;;;;;;;2.59;89.73;96398.63;4904104;29;20277;-80
2022/11/27 05:45:19;;;;;;;4.33;2.03;;;;;;;2.64;89.39;96392.34;4919103;29;20190;-79
2022/11/27 05:47:44;;;;;;;3.37;2.13;;;;;;;2.68;89.40;96398.97;4909147;29;20194;-80
2022/11/27 05:50:10;;;;;;;5.57;2.60;;;;;;;2.58;89.60;96397.81;4916850;29;20244;-80
2022/11/27 05:52:35;;;;;;;5.77;2.27;;;;;;;2.57;89.38;96400.44;4922265;29;20213;-79
2022/11/27 05:55:00;;;;;;;3.50;2.53;;;;;;;2.51;90.10;96399.84;4938086;29;20205;-80
2022/11/27 05:57:27;;;;;;;4.27;1.87;;;;;;;2.53;90.20;96403.16;4922510;29;20195;-79
2022/11/27 05:59:52;;;;;;;7.17;2.10;;;;;;;2.52;89.92;96388.66;4922315;29;20194;-80
2022/11/27 06:02:17;;;;;;;5.20;2.00;;;;;;;2.51;89.80;96399.00;4922482;29;20198;-79
2022/11/27 06:04:42;;;;;;;6.50;1.80;;;;;;;2.54;89.47;96403.97;4938366;29;20205;-79
2022/11/27 06:07:08;;;;;;;5.43;2.40;;;;;;;2.47;88.84;96394.94;4922453;29;20212;-79
2022/11/27 06:09:39;;;;;;;4.00;1.67;;;;;;;2.48;88.92;96394.88;4938670;29;20210;-80
2022/11/27 06:12:04;;;;;;;2.57;1.83;;;;;;;2.45;88.78;96405.25;4937022;29;20540;-80
2022/11/27 06:14:30;;;;;;;1.97;1.53;;;;;;;2.56;88.47;96399.59;4922243;29;20220;-79
2022/11/27 06:16:56;;;;;;;4.47;2.13;;;;;;;2.58;88.08;96399.53;4937517;29;20250;-79
2022/11/27 06:19:21;;;;;;;3.50;1.70;;;;;;;2.61;87.96;96394.25;4937747;29;20269;-79
2022/11/27 06:21:47;;;;;;;3.33;1.50;;;;;;;2.64;88.02;96401.75;4939341;29;20194;-79
2022/11/27 06:24:12;;;;;;;3.20;1.97;;;;;;;2.73;87.14;96397.00;4937686;29;20205;-79
2022/11/27 06:26:37;;;;;;;6.50;1.67;;;;;;;2.69;87.27;96398.06;4921407;29;20198;-80
2022/11/27 06:29:02;;;;;;;3.13;1.30;;;;;;;2.59;87.73;96393.50;4937509;29;20750;-79
2022/11/27 06:31:30;;;;;;;5.20;1.83;;;;;;;2.62;87.44;96396.72;4936829;29;20301;-81
2022/11/27 06:33:56;;;;;;;3.67;1.93;;;;;;;2.78;86.96;96381.38;4921936;29;20229;-79
2022/11/27 06:36:23;;;;;;;4.77;2.13;;;;;;;2.73;86.67;96381.59;4921004;29;20297;-80
2022/11/27 06:38:48;;;;;;;6.13;2.20;;;;;;;2.87;86.50;96378.34;4920580;29;20193;-80
2022/11/27 06:41:16;;;;;;;3.20;1.63;;;;;;;2.97;85.73;96382.06;4939005;29;20197;-80
2022/11/27 06:43:41;;;;;;;3.20;1.77;;;;;;;3.02;85.24;96377.53;4937500;29;20252;-80
2022/11/27 06:46:10;;;;;;;2.43;1.70;;;;;;;2.99;85.71;96385.38;4921118;29;20225;-80
2022/11/27 06:48:35;;;;;;;3.10;1.70;;;;;;;3.06;85.61;96376.44;4936848;29;20574;-81
2022/11/27 06:51:03;;;;;;;2.40;1.20;;;;;;;3.14;84.93;96370.91;4937549;29;20198;-80
2022/11/27 06:53:29;;;;;;;5.63;1.97;;;;;;;3.20;84.31;96359.50;4937073;29;20227;-80
2022/11/27 06:55:55;;;;;;;2.80;1.40;;;;;;;3.18;83.99;96362.16;4918430;29;20575;-80
2022/11/27 06:58:20;;;;;;;2.97;1.60;;;;;;;3.32;83.70;96359.66;4936119;29;20186;-81
2022/11/27 07:00:46;;;;;;;2.80;1.30;;;;;;;3.26;84.02;96371.97;4920111;29;20836;-80
2022/11/27 07:03:11;;;;;;;4.27;1.40;;;;;;;3.37;83.45;96372.25;4920298;29;20614;-80
2022/11/27 07:05:36;;;;;;;2.60;1.33;;;;;;;3.25;83.65;96365.19;4916970;29;20194;-79
2022/11/27 07:08:02;;;;;;;3.07;1.50;;;;;;;3.37;83.09;96356.84;4921185;29;20289;-80
2022/11/27 07:10:28;;;;;;;1.50;1.20;;;;;;;3.34;82.85;96357.81;4930940;29;20190;-80
2022/11/27 07:12:54;;;;;;;4.13;1.37;;;;;;;3.50;82.59;96355.25;4934833;29;20214;-79
2022/11/27 07:15:19;;;;;;;2.43;2.00;;;;;;;3.42;82.39;96344.56;4913563;29;20242;-82
2022/11/27 07:17:44;;;;;;;3.83;1.50;;;;;;;3.50;81.95;96341.56;4935006;29;20214;-80
2022/11/27 07:20:10;;;;;;;2.77;1.80;;;;;;;3.56;82.14;96336.09;4918195;29;20191;-80
2022/11/27 07:22:35;;;;;;;3.13;1.57;;;;;;;3.56;81.96;96330.97;4921155;29;20213;-81
2022/11/27 07:25:00;;;;;;;3.43;1.60;;;;;;;3.60;81.58;96330.69;4934744;29;20287;-80
2022/11/27 07:27:26;;;;;;;4.27;2.83;;;;;;;3.45;81.83;96328.19;4935485;29;20194;-81
2022/11/27 07:29:51;;;;;;;15.33;8.90;;;;;;;3.47;81.69;96327.16;4934735;29;20748;-81
2022/11/27 07:32:16;;;;;;;2.13;1.83;;;;;;;3.57;81.25;96318.03;4935317;29;20229;-80
2022/11/27 07:34:42;;;;;;;2.83;1.90;;;;;;;3.74;81.28;96319.66;4934830;29;20190;-81
2022/11/27 07:37:07;;;;;;;2.17;1.90;;;;;;;3.87;80.64;96319.78;4934752;29;20955;-80
2022/11/27 07:39:32;;;;;;;3.93;2.27;;;;;;;3.87;80.75;96319.78;4932338;29;20199;-80
2022/11/27 07:41:58;;;;;;;3.40;1.70;;;;;;;3.75;81.33;96328.19;4921018;29;20204;-82
2022/11/27 07:44:23;;;;;;;5.07;2.40;;;;;;;3.88;80.79;96326.56;4934385;29;20269;-80
2022/11/27 07:46:48;;;;;;;4.90;1.70;;;;;;;3.80;80.37;96318.47;4912223;29;20198;-80
2022/11/27 07:49:13;;;;;;;3.17;1.90;;;;;;;3.81;80.17;96326.09;4935343;29;20248;-81
2022/11/27 07:51:39;;;;;;;2.77;1.70;;;;;;;3.79;80.66;96330.47;4934840;29;20225;-80
2022/11/27 07:54:04;;;;;;;5.53;2.10;;;;;;;3.89;80.39;96334.22;4920814;29;20210;-80
2022/11/27 07:56:29;;;;;;;6.10;3.20;;;;;;;3.90;80.14;96341.00;4917569;29;20207;-80
2022/11/27 07:58:56;;;;;;;5.17;4.17;;;;;;;4.00;80.12;96341.28;4930434;29;20195;-79
2022/11/27 08:01:21;;;;;;;4.83;3.07;;;;;;;4.01;80.28;96340.38;4934195;29;20204;-79
2022/11/27 08:03:53;;;;;;;3.03;2.53;;;;;;;4.16;79.64;96324.06;5061222;28;20565;-81
2022/11/27 08:06:21;;;;;;;5.70;3.13;;;;;;;4.32;79.21;96326.56;5037553;28;20290;-81
2022/11/27 08:08:47;;;;;;;12.90;6.83;;;;;;;4.08;78.91;96333.97;5049141;28;20569;-81
2022/11/27 08:11:19;;;;;;;4.83;2.80;;;;;;;4.37;78.83;96334.00;5058910;28;20213;-80
2022/11/27 08:13:45;;;;;;;3.53;2.67;;;;;;;4.30;78.85;96328.38;5038570;28;20213;-80
2022/11/27 08:16:10;;;;;;;5.43;2.60;;;;;;;4.30;78.47;96327.56;5037423;28;20201;-81
2022/11/27 08:18:35;;;;;;;5.73;3.30;;;;;;;4.53;77.86;96330.44;5039216;28;20280;-80
2022/11/27 08:21:01;;;;;;;9.80;6.00;;;;;;;4.77;77.69;96337.59;5040792;28;20197;-81
2022/11/27 08:23:26;;;;;;;6.80;4.50;;;;;;;4.76;77.02;96341.06;5051910;28;20674;-81
2022/11/27 08:25:52;;;;;;;7.20;4.10;;;;;;;4.94;76.01;96329.66;5042754;28;20276;-81
2022/11/27 08:28:17;;;;;;;6.60;2.50;;;;;;;4.90;75.73;96311.94;5054562;28;20244;-81
2022/11/27 08:30:42;;;;;;;2.47;2.00;;;;;;;5.11;75.33;96305.44;5024678;28;20289;-80
2022/11/27 08:33:11;;;;;;;3.63;2.57;;;;;;;5.10;74.54;96294.34;5028094;28;20216;-81
2022/11/27 08:35:36;;;;;;;3.10;1.90;;;;;;;5.04;73.94;96288.75;5027497;28;20190;-80
2022/11/27 08:38:02;;;;;;;2.57;1.60;;;;;;;5.14;74.06;96279.53;5034866;28;20268;-81
2022/11/27 08:40:27;;;;;;;5.10;2.63;;;;;;;5.24;73.31;96283.19;5054354;28;20189;-80
2022/11/27 08:42:52;;;;;;;8.30;4.30;;;;;;;5.07;73.69;96286.81;5045745;28;20240;-80
2022/11/27 08:45:18;;;;;;;9.93;4.90;;;;;;;5.32;73.42;96295.56;5050816;28;20193;-81
2022/11/27 08:47:43;;;;;;;6.80;3.77;;;;;;;5.28;72.66;96294.91;5053897;28;20193;-81
2022/11/27 08:50:09;;;;;;;2.50;1.90;;;;;;;5.21;72.04;96288.53;5044746;28;20569;-81
2022/11/27 08:52:34;;;;;;;7.70;4.13;;;;;;;5.28;71.25;96284.63;5050231;28;20212;-81
2022/11/27 08:55:00;;;;;;;18.07;7.57;;;;;;;5.52;70.88;96281.41;5053377;28;20186;-80
2022/11/27 08:57:25;;;;;;;20.13;8.80;;;;;;;5.49;69.87;96279.03;5041260;28;20189;-80
2022/11/27 08:59:50;;;;;;;12.70;5.97;;;;;;;5.71;69.60;96278.47;5040714;28;20725;-80
2022/11/27 09:02:16;;;;;;;7.03;3.23;;;;;;;5.56;68.93;96275.94;5041519;28;20677;-80
2022/11/27 09:04:41;;;;;;;5.17;3.10;;;;;;;5.50;69.34;96278.13;5032170;28;20198;-80
2022/11/27 09:07:06;;;;;;;4.37;2.77;;;;;;;5.61;69.05;96270.50;5029068;28;20188;-80
2022/11/27 09:09:31;;;;;;;11.03;6.00;;;;;;;5.38;68.71;96270.22;5049813;28;20219;-81
2022/11/27 09:11:57;;;;;;;2.47;2.20;;;;;;;5.56;68.36;96267.41;5053701;28;20181;-80
2022/11/27 09:14:22;;;;;;;3.00;2.37;;;;;;;5.49;68.84;96273.91;5023134;28;20573;-80
2022/11/27 09:16:47;;;;;;;3.73;2.37;;;;;;;5.46;68.97;96274.91;5035089;28;20185;-80
2022/11/27 09:19:13;;;;;;;3.77;2.53;;;;;;;5.68;68.56;96275.16;5040876;28;20233;-83
2022/11/27 09:21:38;;;;;;;7.60;5.00;;;;;;;5.69;67.31;96286.31;5035149;28;20186;-80
2022/11/27 09:24:04;;;;;;;2.60;1.80;;;;;;;5.86;67.85;96275.72;5019157;28;20230;-80
2022/11/27 09:26:29;;;;;;;6.53;4.10;;;;;;;5.92;66.45;96277.94;5019908;28;20826;-81
2022/11/27 09:28:57;;;;;;;11.40;6.90;;;;;;;5.99;66.14;96280.09;5020733;28;20308;-80
2022/11/27 09:31:22;;;;;;;2.57;1.73;;;;;;;5.97;66.33;96265.56;5023637;28;20186;-81
2022/11/27 09:33:48;;;;;;;3.07;2.40;;;;;;;6.04;65.99;96255.66;5019516;28;20222;-80
2022/11/27 09:36:19;;;;;;;6.60;5.73;;;;;;;6.24;65.41;96244.00;5025818;28;20280;-80
2022/11/27 09:38:44;;;;;;;4.57;4.17;;;;;;;6.37;64.69;96251.75;5018163;28;20199;-85
2022/11/27 09:41:10;;;;;;;11.13;7.47;;;;;;;6.49;64.20;96251.72;5033585;28;20190;-81
2022/11/27 09:43:41;;;;;;;18.57;12.37;;;;;;;6.67;63.80;96249.63;5036520;28;20645;-83
2022/11/27 09:46:16;;;;;;;13.17;10.53;;;;;;;6.38;63.52;96250.81;5035479;28;20198;-84
2022/11/27 09:48:43;;;;;;;19.30;14.87;;;;;;;6.35;63.36;96248.41;5034371;28;20283;-84
2022/11/27 09:51:58;;;;;;;6.03;5.20;;;;;;;6.45;63.76;96242.53;5031512;28;20198;-84
2022/11/27 09:54:29;;;;;;;3.97;2.90;;;;;;;6.51;64.36;96234.38;5018699;28;20223;-83
2022/11/27 09:56:55;;;;;;;4.00;3.60;;;;;;;6.58;65.12;96231.38;5001937;28;20202;-83
2022/11/27 09:59:22;;;;;;;2.33;1.70;;;;;;;6.42;64.74;96219.53;4995413;28;20664;-81
2022/11/27 10:01:48;;;;;;;1.93;1.80;;;;;;;6.37;64.74;96219.03;4987229;28;20207;-82
2022/11/27 10:04:17;;;;;;;1.80;1.70;;;;;;;6.27;65.14;96219.75;4988972;28;20225;-83
2022/11/27 10:07:04;;;;;;;4.77;1.73;;;;;;;6.17;63.88;96237.59;5002810;28;20198;-82
2022/11/27 10:09:51;;;;;;;3.43;2.00;;;;;;;6.46;63.88;96233.06;5004728;28;20191;-81
2022/11/27 10:12:25;;;;;;;1.27;1.10;;;;;;;6.30;63.75;96227.28;5011968;28;20233;-81
2022/11/27 10:15:05;;;;;;;1.90;1.33;;;;;;;6.43;63.16;96226.31;5004965;28;20194;-80
2022/11/27 10:17:37;;;;;;;2.90;1.83;;;;;;;6.60;63.85;96221.75;5009656;28;20238;-81
2022/11/27 10:20:09;;;;;;;2.20;1.50;;;;;;;6.67;62.85;96225.56;5002741;28;20209;-81
2022/11/27 10:22:47;;;;;;;2.30;1.30;;;;;;;6.64;62.61;96220.63;5023878;28;20226;-81
2022/11/27 10:25:21;;;;;;;6.50;4.87;;;;;;;6.77;63.02;96218.81;5003205;28;20265;-82
2022/11/27 10:28:10;;;;;;;2.50;1.43;;;;;;;6.84;61.34;96221.81;5011664;28;20585;-82
2022/11/27 10:30:39;;;;;;;2.10;1.90;;;;;;;6.90;62.19;96224.78;5023916;28;20209;-81
2022/11/27 10:33:16;;;;;;;2.13;1.73;;;;;;;6.84;62.05;96225.22;5043123;28;20224;-82
2022/11/27 10:35:42;;;;;;;3.10;1.60;;;;;;;7.12;61.30;96218.09;5025283;28;20213;-86
2022/11/27 10:38:15;;;;;;;1.57;1.47;;;;;;;7.22;60.74;96212.13;5045731;28;20271;-82
2022/11/27 10:41:10;;;;;;;2.60;1.47;;;;;;;7.33;61.10;96207.03;5040895;28;20191;-82
2022/11/27 10:43:35;;;;;;;1.83;1.70;;;;;;;7.26;60.64;96211.00;5046404;28;20216;-81
2022/11/27 10:46:12;;;;;;;3.47;1.90;;;;;;;7.61;60.16;96194.69;5034610;28;20201;-81
2022/11/27 10:48:38;;;;;;;1.83;1.40;;;;;;;7.60;60.26;96191.28;5058253;28;20185;-82
2022/11/27 10:51:11;;;;;;;2.77;2.10;;;;;;;7.82;60.25;96194.81;5058916;28;20564;-82
2022/11/27 10:53:39;;;;;;;3.47;2.00;;;;;;;7.88;60.60;96181.44;5046985;28;20203;-82
2022/11/27 10:56:10;;;;;;;4.43;4.13;;;;;;;7.91;60.09;96176.03;5036355;28;20701;-82
2022/11/27 10:58:50;;;;;;;2.20;1.50;;;;;;;7.86;58.11;96173.81;5059288;28;20204;-82
2022/11/27 11:01:18;;;;;;;2.33;1.40;;;;;;;8.02;57.33;96170.03;5038493;28;20550;-82
2022/11/27 11:03:44;;;;;;;2.47;1.50;;;;;;;7.93;59.14;96158.63;5030180;28;20215;-82
2022/11/27 11:06:13;;;;;;;4.63;1.40;;;;;;;8.18;58.12;96155.00;5026664;28;20202;-82
2022/11/27 11:08:39;;;;;;;1.70;1.40;;;;;;;8.08;58.34;96139.38;5049070;28;20192;-82
2022/11/27 11:11:06;;;;;;;2.20;1.40;;;;;;;8.28;57.21;96142.16;5031622;28;20189;-82
2022/11/27 11:13:45;;;;;;;1.73;1.00;;;;;;;8.39;55.19;96132.69;5053724;28;20201;-82
2022/11/27 11:16:11;;;;;;;1.83;1.43;;;;;;;8.44;56.35;96121.97;5017295;28;20195;-83
2022/11/27 11:18:50;;;;;;;1.33;1.20;;;;;;;8.45;55.68;96115.84;5046668;28;20217;-79
2022/11/27 11:21:20;;;;;;;2.50;1.40;;;;;;;8.29;55.74;96107.59;5048354;28;20649;-82
2022/11/27 11:23:56;;;;;;;2.00;1.70;;;;;;;8.45;55.48;96102.91;5040913;28;20578;-82
2022/11/27 11:26:21;;;;;;;1.83;1.30;;;;;;;8.14;55.05;96088.94;5053931;28;20626;-82
2022/11/27 11:28:52;;;;;;;2.43;1.50;;;;;;;8.38;56.04;96091.38;5049819;28;20185;-82
2022/11/27 11:31:20;;;;;;;2.67;1.63;;;;;;;8.36;55.22;96093.25;5054941;28;20181;-82
2022/11/27 11:33:57;;;;;;;2.07;1.30;;;;;;;8.20;54.95;96094.44;5058437;28;20201;-82
2022/11/27 11:36:23;;;;;;;5.43;2.57;;;;;;;8.04;55.17;96087.97;5046658;28;20201;-82
2022/11/27 11:38:48;;;;;;;3.70;1.83;;;;;;;8.05;55.55;96095.63;5038310;28;20197;-80
2022/11/27 11:41:16;;;;;;;2.03;1.20;;;;;;;7.84;54.97;96092.91;5058922;28;20193;-82
2022/11/27 11:43:52;;;;;;;2.20;1.50;;;;;;;7.90;54.88;96089.88;5051464;28;20569;-82